createdAt,value
2022-11-29T00:01:33.972Z,94.19
2022-11-29T00:04:01.443Z,94.71
2022-11-29T00:06:32.733Z,94.53
2022-11-29T00:09:02.399Z,94.80
2022-11-29T00:11:51.337Z,94.53
2022-11-29T00:14:19.592Z,94.51
2022-11-29T00:16:50.897Z,94.23
2022-11-29T00:19:17.596Z,94.41
2022-11-29T00:21:44.377Z,94.55
2022-11-29T00:24:11.178Z,94.42
2022-11-29T00:26:38.247Z,94.62
2022-11-29T00:29:05.037Z,94.26
2022-11-29T00:31:32.879Z,94.46
2022-11-29T00:34:01.601Z,94.16
2022-11-29T00:36:28.851Z,94.33
2022-11-29T00:38:55.587Z,94.75
2022-11-29T00:41:22.303Z,94.54
2022-11-29T00:43:48.952Z,94.61
2022-11-29T00:46:15.753Z,94.47
2022-11-29T00:48:42.407Z,94.39
2022-11-29T00:51:09.300Z,94.18
2022-11-29T00:53:36.999Z,94.11
2022-11-29T00:56:04.841Z,94.06
2022-11-29T00:58:31.752Z,93.71
2022-11-29T01:00:58.431Z,93.73
2022-11-29T01:03:25.343Z,93.81
2022-11-29T01:05:52.304Z,93.91
2022-11-29T01:08:19.294Z,94.18
2022-11-29T01:10:46.044Z,94.40
2022-11-29T01:13:14.041Z,94.46
2022-11-29T01:15:41.603Z,94.16
2022-11-29T01:18:08.182Z,94.20
2022-11-29T01:20:34.800Z,94.43
2022-11-29T01:23:01.493Z,94.55
2022-11-29T01:25:29.372Z,94.42
2022-11-29T01:27:56.001Z,94.24
2022-11-29T01:30:22.676Z,94.33
2022-11-29T01:32:49.408Z,94.48
2022-11-29T01:35:16.139Z,94.33
2022-11-29T01:37:42.764Z,94.39
2022-11-29T01:40:09.741Z,94.34
2022-11-29T01:42:36.290Z,94.35
2022-11-29T01:45:08.585Z,94.23
2022-11-29T01:47:45.849Z,94.30
2022-11-29T01:50:13.290Z,94.34
2022-11-29T01:52:40.635Z,94.50
2022-11-29T01:55:09.872Z,94.37
2022-11-29T01:57:39.973Z,94.53
2022-11-29T02:00:16.115Z,94.40
2022-11-29T02:02:52.050Z,94.06
2022-11-29T02:05:20.185Z,94.50
2022-11-29T02:07:50.599Z,94.53
2022-11-29T02:10:18.340Z,94.43
2022-11-29T02:13:08.037Z,94.70
2022-11-29T02:15:46.331Z,94.60
2022-11-29T02:18:19.465Z,94.61
2022-11-29T02:21:07.358Z,94.50
2022-11-29T02:23:58.296Z,94.49
2022-11-29T02:26:49.055Z,94.32
2022-11-29T02:29:43.441Z,94.26
2022-11-29T02:32:41.242Z,94.36
2022-11-29T02:35:13.846Z,94.35
2022-11-29T02:37:58.818Z,94.31
2022-11-29T02:40:34.740Z,94.24
2022-11-29T02:43:19.272Z,94.33
2022-11-29T02:46:04.728Z,94.35
2022-11-29T02:48:53.837Z,94.22
2022-11-29T02:51:32.962Z,94.39
2022-11-29T02:54:21.251Z,94.14
2022-11-29T02:57:00.207Z,94.32
2022-11-29T02:59:41.718Z,94.13
2022-11-29T03:02:35.803Z,94.39
2022-11-29T03:05:28.482Z,94.26
2022-11-29T03:08:10.192Z,94.57
2022-11-29T03:10:49.042Z,94.26
2022-11-29T03:13:41.794Z,94.64
2022-11-29T03:16:43.084Z,94.84
2022-11-29T03:19:19.406Z,94.69
2022-11-29T03:21:59.591Z,94.61
2022-11-29T03:24:40.803Z,94.73
2022-11-29T03:27:13.619Z,94.64
2022-11-29T03:29:51.330Z,94.68
2022-11-29T03:32:35.395Z,94.40
2022-11-29T03:35:13.472Z,94.48
2022-11-29T03:37:59.828Z,94.45
2022-11-29T03:40:52.377Z,94.31
2022-11-29T03:43:30.808Z,94.23
2022-11-29T03:46:11.232Z,94.34
2022-11-29T03:48:48.332Z,94.05
2022-11-29T03:51:38.901Z,94.20
2022-11-29T03:54:14.304Z,94.11
2022-11-29T03:56:41.885Z,94.25
2022-11-29T03:59:20.129Z,94.27
2022-11-29T04:02:24.257Z,94.33
2022-11-29T04:05:09.218Z,94.10
2022-11-29T04:08:14.524Z,94.07
2022-11-29T04:10:56.278Z,93.77
2022-11-29T04:13:44.594Z,93.75
2022-11-29T04:16:48.042Z,93.52
2022-11-29T04:19:43.927Z,93.39
2022-11-29T04:22:16.460Z,93.50
2022-11-29T04:25:01.187Z,93.45
2022-11-29T04:27:41.563Z,93.26
2022-11-29T04:30:20.515Z,92.99
2022-11-29T04:32:59.276Z,92.93
2022-11-29T04:35:56.822Z,93.08
2022-11-29T04:38:42.341Z,93.18
2022-11-29T04:41:36.697Z,93.27
2022-11-29T04:44:24.939Z,93.43
2022-11-29T04:47:00.678Z,93.46
2022-11-29T04:49:36.081Z,93.46
2022-11-29T04:52:24.887Z,93.68
2022-11-29T04:55:26.162Z,93.86
2022-11-29T04:58:04.890Z,93.87
2022-11-29T05:00:39.327Z,93.88
2022-11-29T05:03:14.491Z,94.13
2022-11-29T05:05:59.140Z,94.06
2022-11-29T05:08:37.603Z,94.07
2022-11-29T05:11:26.363Z,94.09
2022-11-29T05:14:02.422Z,94.18
2022-11-29T05:16:32.459Z,94.15
2022-11-29T05:19:20.586Z,94.15
2022-11-29T05:21:52.250Z,93.93
2022-11-29T05:24:47.936Z,93.70
2022-11-29T05:27:17.353Z,93.63
2022-11-29T05:30:15.301Z,93.50
2022-11-29T05:32:44.972Z,93.55
2022-11-29T05:35:40.865Z,93.59
2022-11-29T05:38:14.262Z,93.52
2022-11-29T05:41:08.855Z,93.61
2022-11-29T05:43:46.731Z,93.67
2022-11-29T05:46:28.873Z,93.58
2022-11-29T05:49:10.759Z,93.52
2022-11-29T05:52:01.160Z,93.60
2022-11-29T05:54:34.434Z,93.59
2022-11-29T05:57:33.871Z,93.54
2022-11-29T06:00:03.219Z,93.52
2022-11-29T06:02:48.536Z,93.39
2022-11-29T06:05:28.781Z,93.29
2022-11-29T06:07:55.390Z,93.20
2022-11-29T06:10:30.015Z,93.25
2022-11-29T06:13:11.526Z,93.31
2022-11-29T06:16:08.043Z,93.15
2022-11-29T06:18:56.527Z,92.81
2022-11-29T06:21:41.958Z,92.71
2022-11-29T06:24:27.052Z,92.70
2022-11-29T06:27:05.409Z,92.50
2022-11-29T06:29:56.596Z,92.46
2022-11-29T06:32:29.169Z,92.41
2022-11-29T06:35:05.726Z,92.39
2022-11-29T06:37:42.998Z,92.15
2022-11-29T06:40:12.943Z,91.94
2022-11-29T06:42:39.575Z,91.97
2022-11-29T06:45:07.109Z,91.53
2022-11-29T06:47:46.958Z,91.15
2022-11-29T06:50:29.526Z,91.15
2022-11-29T06:53:10.249Z,91.26
2022-11-29T06:55:52.613Z,90.71
2022-11-29T06:58:50.999Z,90.62
2022-11-29T07:01:53.914Z,90.61
2022-11-29T07:04:46.802Z,90.31
2022-11-29T07:07:18.514Z,90.41
2022-11-29T07:09:47.353Z,90.28
2022-11-29T07:12:14.720Z,90.49
2022-11-29T07:14:41.625Z,90.38
2022-11-29T07:17:27.566Z,90.09
2022-11-29T07:20:01.623Z,89.75
2022-11-29T07:22:46.390Z,89.53
2022-11-29T07:25:42.203Z,89.38
2022-11-29T07:28:47.061Z,89.42
2022-11-29T07:31:28.797Z,89.71
2022-11-29T07:34:37.057Z,89.44
2022-11-29T07:37:30.966Z,89.53
2022-11-29T07:40:03.514Z,89.41
2022-11-29T07:43:01.137Z,89.40
2022-11-29T07:45:29.970Z,89.33
2022-11-29T07:48:05.645Z,89.12
2022-11-29T07:50:32.331Z,89.28
2022-11-29T07:52:59.809Z,89.50
2022-11-29T07:55:27.179Z,89.49
2022-11-29T07:57:53.929Z,89.67
2022-11-29T08:00:21.604Z,89.24
2022-11-29T08:02:50.083Z,89.26
2022-11-29T08:05:17.363Z,89.22
2022-11-29T08:07:44.175Z,89.36
2022-11-29T08:10:14.821Z,89.26
2022-11-29T08:12:50.326Z,89.00
2022-11-29T08:15:21.304Z,88.87
2022-11-29T08:17:48.381Z,88.25
2022-11-29T08:20:16.711Z,88.09
2022-11-29T08:22:43.571Z,88.21
2022-11-29T08:25:10.885Z,88.30
2022-11-29T08:27:38.764Z,86.91
2022-11-29T08:30:06.893Z,87.19
2022-11-29T08:32:34.173Z,87.12
2022-11-29T08:35:00.879Z,86.92
2022-11-29T08:37:27.460Z,86.70
2022-11-29T08:39:55.344Z,86.54
2022-11-29T08:42:21.984Z,86.66
2022-11-29T08:44:48.690Z,86.79
2022-11-29T08:47:33.604Z,86.70
2022-11-29T08:50:02.868Z,85.94
2022-11-29T08:52:48.452Z,85.87
2022-11-29T08:55:15.931Z,85.79
2022-11-29T08:57:42.752Z,86.02
2022-11-29T09:00:10.455Z,85.99
2022-11-29T09:02:37.707Z,86.18
2022-11-29T09:05:05.936Z,86.11
2022-11-29T09:07:32.938Z,85.91
2022-11-29T09:10:04.969Z,85.81
2022-11-29T09:12:32.820Z,85.48
2022-11-29T09:14:59.825Z,84.73
2022-11-29T09:17:27.016Z,84.93
2022-11-29T09:19:53.737Z,84.83
2022-11-29T09:22:20.589Z,84.39
2022-11-29T09:24:47.576Z,84.09
2022-11-29T09:27:14.633Z,84.17
2022-11-29T09:29:41.281Z,84.00
2022-11-29T09:32:08.009Z,83.83
2022-11-29T09:34:34.700Z,83.98
2022-11-29T09:37:01.494Z,83.89
2022-11-29T09:39:30.531Z,83.40
2022-11-29T09:42:27.525Z,83.38
2022-11-29T09:45:13.031Z,83.23
2022-11-29T09:47:58.087Z,83.34
2022-11-29T09:50:57.684Z,83.05
2022-11-29T09:53:30.438Z,82.79
2022-11-29T09:56:05.950Z,82.09
2022-11-29T09:58:41.168Z,81.82
2022-11-29T10:01:13.179Z,82.09
2022-11-29T10:03:48.597Z,81.49
2022-11-29T10:06:26.796Z,80.88
2022-11-29T10:09:06.005Z,79.52
2022-11-29T10:11:44.022Z,79.78
2022-11-29T10:14:20.382Z,79.48
2022-11-29T10:17:04.186Z,79.36
2022-11-29T10:19:48.143Z,78.72
2022-11-29T10:22:59.369Z,78.60
2022-11-29T10:25:45.570Z,77.91
2022-11-29T10:28:33.629Z,78.33
2022-11-29T10:31:37.059Z,76.99
2022-11-29T10:34:13.647Z,77.20
2022-11-29T10:36:52.921Z,77.28
2022-11-29T10:39:45.299Z,77.60
2022-11-29T10:42:39.090Z,77.69
2022-11-29T10:45:18.186Z,77.35
2022-11-29T10:47:47.658Z,76.21
2022-11-29T10:50:21.544Z,76.49
2022-11-29T10:52:48.230Z,76.62
2022-11-29T10:55:17.806Z,77.09
2022-11-29T10:58:12.597Z,75.54
2022-11-29T11:00:46.929Z,76.45
2022-11-29T11:03:25.863Z,75.55
2022-11-29T11:06:19.937Z,74.64
2022-11-29T11:08:55.834Z,74.52
2022-11-29T11:11:31.584Z,74.15
2022-11-29T11:14:32.082Z,72.70
2022-11-29T11:17:32.861Z,72.43
2022-11-29T11:20:08.432Z,73.77
2022-11-29T11:22:39.929Z,74.02
2022-11-29T11:25:25.245Z,73.82
2022-11-29T11:27:52.052Z,73.76
2022-11-29T11:30:24.005Z,73.93
2022-11-29T11:33:16.427Z,73.64
2022-11-29T11:35:43.085Z,73.29
2022-11-29T11:38:17.855Z,72.54
2022-11-29T11:40:45.252Z,72.30
2022-11-29T11:43:30.684Z,72.61
2022-11-29T11:45:57.377Z,72.84
2022-11-29T11:48:24.575Z,73.09
2022-11-29T11:50:52.954Z,73.16
2022-11-29T11:53:25.023Z,73.48
2022-11-29T11:56:01.516Z,73.15
2022-11-29T11:58:56.944Z,72.48
2022-11-29T12:01:23.548Z,72.35
2022-11-29T12:04:25.458Z,72.51
2022-11-29T12:07:00.140Z,72.32
2022-11-29T12:09:48.548Z,71.77
2022-11-29T12:12:25.767Z,71.83
2022-11-29T12:14:58.558Z,70.90
2022-11-29T12:17:31.542Z,69.74
2022-11-29T12:20:16.618Z,68.34
2022-11-29T12:23:12.347Z,68.92
2022-11-29T12:25:49.331Z,69.28
2022-11-29T12:28:20.805Z,68.44
2022-11-29T12:31:05.973Z,68.23
2022-11-29T12:33:46.519Z,68.00
2022-11-29T12:36:58.283Z,67.34
2022-11-29T12:39:25.602Z,69.31
2022-11-29T12:42:03.528Z,68.78
2022-11-29T12:44:36.652Z,68.69
2022-11-29T12:50:28.914Z,69.42
2022-11-29T12:53:07.845Z,69.67
2022-11-29T12:56:00.759Z,69.90
2022-11-29T12:58:45.977Z,70.60
2022-11-29T13:01:29.624Z,69.37
2022-11-29T13:04:07.580Z,69.44
2022-11-29T13:06:43.870Z,69.41
2022-11-29T13:09:25.314Z,69.22
2022-11-29T13:12:18.261Z,69.57
2022-11-29T13:15:03.166Z,70.55
2022-11-29T13:17:57.051Z,70.84
2022-11-29T13:20:52.900Z,71.46
2022-11-29T13:26:37.920Z,71.92
2022-11-29T13:29:07.018Z,72.24
2022-11-29T13:31:37.652Z,72.56
2022-11-29T13:34:15.915Z,72.93
2022-11-29T13:37:06.147Z,73.00
2022-11-29T13:39:40.878Z,73.34
2022-11-29T13:42:21.252Z,73.81
2022-11-29T13:45:03.002Z,74.05
2022-11-29T13:47:29.757Z,74.52
2022-11-29T13:49:57.123Z,74.68
2022-11-29T13:52:28.485Z,74.88
2022-11-29T13:55:14.697Z,74.97
2022-11-29T13:58:14.840Z,75.06
2022-11-29T14:00:43.978Z,75.52
2022-11-29T14:03:28.660Z,75.71
2022-11-29T14:06:14.914Z,75.93
2022-11-29T14:11:43.015Z,76.78
2022-11-29T14:14:22.621Z,76.89
2022-11-29T14:17:02.073Z,77.19
2022-11-29T14:19:36.130Z,77.21
2022-11-29T14:22:02.898Z,77.62
2022-11-29T14:24:32.493Z,77.80
2022-11-29T14:27:09.045Z,78.14
2022-11-29T14:29:51.858Z,78.04
2022-11-29T14:32:26.702Z,78.11
2022-11-29T14:35:10.504Z,78.60
2022-11-29T14:38:01.967Z,79.01
2022-11-29T14:40:44.270Z,79.46
2022-11-29T14:43:33.096Z,80.27
2022-11-29T14:46:29.061Z,79.69
2022-11-29T14:48:56.141Z,79.69
2022-11-29T14:51:29.899Z,79.91
2022-11-29T14:54:39.201Z,80.26
2022-11-29T14:57:43.516Z,80.18
2022-11-29T15:00:12.710Z,80.68
2022-11-29T15:02:47.907Z,81.07
2022-11-29T15:05:21.654Z,81.24
2022-11-29T15:08:14.493Z,81.27
2022-11-29T15:10:50.153Z,81.35
2022-11-29T15:13:24.597Z,81.37
2022-11-29T15:16:09.576Z,81.68
2022-11-29T15:19:08.415Z,81.82
2022-11-29T15:21:49.610Z,82.13
2022-11-29T15:24:17.306Z,82.26
2022-11-29T15:27:04.013Z,82.45
2022-11-29T15:29:31.661Z,82.53
2022-11-29T15:32:01.709Z,83.07
2022-11-29T15:34:50.739Z,83.46
2022-11-29T15:37:23.570Z,83.68
2022-11-29T15:40:05.005Z,83.78
2022-11-29T15:42:43.617Z,84.03
2022-11-29T15:45:29.145Z,84.25
2022-11-29T15:48:29.945Z,84.32
2022-11-29T15:51:28.171Z,84.45
2022-11-29T15:54:12.062Z,84.33
2022-11-29T15:56:43.294Z,84.55
2022-11-29T15:59:22.011Z,84.74
2022-11-29T16:01:52.434Z,84.76
2022-11-29T16:04:21.643Z,84.91
2022-11-29T16:06:49.822Z,85.01
2022-11-29T16:09:27.020Z,85.28
2022-11-29T16:11:53.814Z,85.48
2022-11-29T16:14:28.426Z,85.85
2022-11-29T16:16:58.211Z,85.84
2022-11-29T16:19:37.042Z,85.97
2022-11-29T16:22:12.527Z,86.10
2022-11-29T16:24:58.103Z,86.17
2022-11-29T16:27:25.001Z,86.27
2022-11-29T16:29:55.104Z,86.53
2022-11-29T16:32:26.924Z,86.67
2022-11-29T16:34:54.561Z,86.58
2022-11-29T16:37:26.833Z,87.17
2022-11-29T16:39:59.354Z,87.28
2022-11-29T16:42:28.616Z,87.27
2022-11-29T16:45:02.086Z,87.17
2022-11-29T16:47:58.904Z,87.04
2022-11-29T16:50:30.832Z,87.17
2022-11-29T16:53:32.421Z,87.64
2022-11-29T16:56:01.062Z,87.87
2022-11-29T16:58:28.213Z,88.28
2022-11-29T17:00:55.571Z,87.93
2022-11-29T17:03:22.618Z,87.86
2022-11-29T17:05:49.973Z,87.96
2022-11-29T17:08:16.627Z,88.21
2022-11-29T17:10:43.243Z,88.25
2022-11-29T17:13:11.514Z,88.11
2022-11-29T17:15:38.219Z,88.13
2022-11-29T17:18:04.950Z,88.23
2022-11-29T17:20:31.559Z,88.32
2022-11-29T17:22:58.119Z,88.32
2022-11-29T17:25:24.780Z,88.23
2022-11-29T17:28:00.907Z,88.11
2022-11-29T17:30:32.740Z,88.06
2022-11-29T17:32:59.521Z,88.27
2022-11-29T17:35:26.137Z,88.32
2022-11-29T17:37:52.745Z,88.42
2022-11-29T17:40:20.425Z,88.70
2022-11-29T17:42:48.562Z,89.01
2022-11-29T17:45:15.240Z,89.20
2022-11-29T17:47:44.700Z,89.30
2022-11-29T17:50:11.741Z,89.31
2022-11-29T17:52:39.263Z,89.36
2022-11-29T17:55:06.456Z,89.28
2022-11-29T17:57:33.044Z,89.33
2022-11-29T17:59:59.679Z,89.05
2022-11-29T18:02:26.401Z,89.26
2022-11-29T18:04:55.334Z,89.42
2022-11-29T18:07:21.935Z,89.52
2022-11-29T18:09:49.037Z,89.43
2022-11-29T18:12:15.766Z,89.53
2022-11-29T18:14:42.418Z,89.45
2022-11-29T18:17:09.090Z,89.52
2022-11-29T18:19:35.861Z,89.56
2022-11-29T18:22:03.003Z,89.79
2022-11-29T18:24:29.669Z,90.03
2022-11-29T18:26:56.276Z,90.09
2022-11-29T18:29:23.317Z,89.82
2022-11-29T18:31:50.325Z,89.82
2022-11-29T18:34:17.009Z,89.97
2022-11-29T18:36:46.358Z,89.90
2022-11-29T18:39:18.441Z,89.79
2022-11-29T18:41:48.014Z,89.64
2022-11-29T18:44:17.186Z,89.66
2022-11-29T18:46:45.325Z,90.06
2022-11-29T18:49:14.891Z,89.90
2022-11-29T18:51:44.633Z,89.95
2022-11-29T18:54:12.104Z,89.69
2022-11-29T18:56:38.715Z,89.97
2022-11-29T18:59:12.447Z,89.98
2022-11-29T19:01:43.638Z,89.92
2022-11-29T19:04:13.825Z,89.88
2022-11-29T19:06:40.939Z,90.23
2022-11-29T19:09:15.868Z,90.29
2022-11-29T19:11:42.603Z,90.79
2022-11-29T19:14:12.773Z,90.56
2022-11-29T19:16:42.179Z,90.86
2022-11-29T19:19:09.063Z,91.04
2022-11-29T19:21:36.137Z,91.20
2022-11-29T19:24:05.719Z,91.31
2022-11-29T19:26:33.584Z,91.36
2022-11-29T19:29:01.907Z,91.46
2022-11-29T19:31:28.913Z,91.55
2022-11-29T19:33:56.289Z,91.28
2022-11-29T19:36:28.569Z,91.31
2022-11-29T19:39:01.021Z,91.42
2022-11-29T19:41:30.518Z,91.46
2022-11-29T19:43:59.804Z,91.46
2022-11-29T19:46:31.888Z,91.38
2022-11-29T19:49:00.372Z,91.37
2022-11-29T19:51:28.782Z,91.26
2022-11-29T19:53:57.996Z,91.26
2022-11-29T19:56:25.593Z,91.54
2022-11-29T19:58:52.461Z,91.32
2022-11-29T20:01:22.567Z,91.27
2022-11-29T20:03:49.960Z,91.28
2022-11-29T20:06:18.231Z,91.10
2022-11-29T20:08:45.659Z,91.54
2022-11-29T20:11:15.481Z,91.19
2022-11-29T20:13:44.587Z,91.42
2022-11-29T20:16:14.677Z,91.18
2022-11-29T20:18:50.160Z,91.58
2022-11-29T20:21:31.853Z,91.29
2022-11-29T20:24:07.857Z,91.31
2022-11-29T20:26:37.585Z,91.37
2022-11-29T20:29:05.316Z,91.72
2022-11-29T20:31:34.205Z,91.41
2022-11-29T20:34:01.380Z,91.63
2022-11-29T20:36:40.279Z,91.80
2022-11-29T20:39:18.537Z,91.89
2022-11-29T20:41:51.282Z,92.25
2022-11-29T20:44:33.145Z,92.15
2022-11-29T20:47:00.202Z,92.04
2022-11-29T20:49:27.139Z,92.38
2022-11-29T20:52:04.806Z,92.46
2022-11-29T20:54:31.398Z,92.13
2022-11-29T20:56:58.057Z,92.29
2022-11-29T20:59:24.620Z,92.31
2022-11-29T21:01:51.220Z,92.32
2022-11-29T21:04:23.144Z,92.35
2022-11-29T21:06:50.285Z,92.61
2022-11-29T21:09:16.878Z,92.93
2022-11-29T21:11:43.662Z,93.11
2022-11-29T21:14:10.686Z,93.26
2022-11-29T21:16:37.587Z,92.85
2022-11-29T21:19:04.513Z,92.91
2022-11-29T21:21:31.068Z,93.25
2022-11-29T21:24:00.628Z,92.95
2022-11-29T21:26:50.807Z,93.13
2022-11-29T21:29:19.139Z,92.79
2022-11-29T21:31:48.408Z,92.54
2022-11-29T21:34:15.051Z,92.80
2022-11-29T21:36:42.098Z,92.95
2022-11-29T21:39:13.231Z,93.03
2022-11-29T21:41:39.783Z,93.04
2022-11-29T21:44:07.991Z,93.35
2022-11-29T21:46:35.639Z,93.51
2022-11-29T21:49:02.394Z,93.30
2022-11-29T21:51:29.014Z,93.39
2022-11-29T21:53:55.692Z,93.19
2022-11-29T21:56:22.339Z,93.13
2022-11-29T21:58:48.965Z,92.83
2022-11-29T22:01:19.334Z,92.95
2022-11-29T22:03:46.100Z,93.02
2022-11-29T22:06:20.906Z,92.97
2022-11-29T22:08:48.488Z,92.95
2022-11-29T22:11:30.555Z,92.87
2022-11-29T22:14:15.331Z,92.99
2022-11-29T22:17:01.351Z,93.05
2022-11-29T22:19:33.631Z,93.11
2022-11-29T22:22:05.392Z,92.96
2022-11-29T22:24:34.745Z,93.34
2022-11-29T22:27:01.802Z,93.62
2022-11-29T22:29:28.457Z,93.38
2022-11-29T22:31:56.701Z,93.51
2022-11-29T22:34:25.329Z,93.28
2022-11-29T22:36:51.980Z,93.09
2022-11-29T22:39:18.590Z,93.21
2022-11-29T22:41:50.806Z,93.35
2022-11-29T22:44:20.448Z,93.25
2022-11-29T22:46:47.145Z,93.27
2022-11-29T22:49:13.862Z,93.24
2022-11-29T22:51:40.505Z,93.33
2022-11-29T22:54:09.108Z,93.30
2022-11-29T22:56:38.148Z,93.32
2022-11-29T22:59:05.103Z,93.35
2022-11-29T23:01:33.524Z,93.22
2022-11-29T23:04:03.942Z,93.24
2022-11-29T23:06:34.280Z,93.62
2022-11-29T23:09:07.298Z,93.46
2022-11-29T23:11:34.146Z,93.15
2022-11-29T23:14:00.838Z,93.10
2022-11-29T23:16:29.636Z,93.16
2022-11-29T23:19:00.842Z,93.36
2022-11-29T23:21:31.489Z,93.60
2022-11-29T23:24:02.037Z,93.36
2022-11-29T23:26:40.505Z,93.37
2022-11-29T23:29:09.879Z,93.40
2022-11-29T23:31:36.667Z,93.42
2022-11-29T23:34:04.112Z,93.46
2022-11-29T23:36:30.785Z,93.62
2022-11-29T23:38:57.450Z,93.66
2022-11-29T23:41:24.360Z,93.71
2022-11-29T23:43:50.936Z,93.68
2022-11-29T23:46:23.938Z,93.78
2022-11-29T23:48:51.443Z,93.78
2022-11-29T23:51:19.639Z,94.14
2022-11-29T23:53:46.873Z,94.14
2022-11-29T23:56:15.995Z,94.01
2022-11-29T23:58:44.148Z,93.96
